Time;durP1;ratioP1;P1;durP2;ratioP2;P2;SDS_P1;SDS_P2;PMS_P1;PMS_P2;Temp;Humidity;BMP_temperature;BMP_pressure;BME280_temperature;BME280_humidity;BME280_pressure;Samples;Min_cycle;Max_cycle;Signal;HPM_P1;HPM_P2
2024/01/12 00:03:29;;;;;;;28.55;8.52;;;;;;;;;;10333133;28;20667;-70
2024/01/12 00:08:32;;;;;;;26.55;6.95;;;;;;;;;;10307248;28;20201;-70
2024/01/12 00:13:33;;;;;;;18.95;7.43;;;;;;;;;;10315574;28;20201;-70
2024/01/12 00:18:34;;;;;;;30.00;6.82;;;;;;;;;;10330232;28;20558;-70
2024/01/12 00:23:35;;;;;;;25.55;8.02;;;;;;;;;;10311699;28;20717;-70
2024/01/12 00:28:36;;;;;;;30.63;8.30;;;;;;;;;;10324104;28;20192;-69
2024/01/12 00:33:37;;;;;;;27.45;9.00;;;;;;;;;;10318578;28;20221;-70
2024/01/12 00:38:38;;;;;;;25.77;8.57;;;;;;;;;;10315291;28;20216;-68
2024/01/12 00:43:39;;;;;;;25.90;7.15;;;;;;;;;;10312886;28;20751;-68
2024/01/12 00:48:40;;;;;;;25.33;7.55;;;;;;;;;;10314068;28;20188;-68
2024/01/12 00:53:41;;;;;;;19.95;6.32;;;;;;;;;;10327529;28;20626;-68
2024/01/12 00:58:42;;;;;;;30.33;8.55;;;;;;;;;;10326341;28;20263;-68
2024/01/12 01:03:43;;;;;;;35.67;8.93;;;;;;;;;;10304681;28;20315;-68
2024/01/12 01:08:45;;;;;;;24.73;7.53;;;;;;;;;;10322778;28;20540;-68
2024/01/12 01:13:47;;;;;;;25.95;7.28;;;;;;;;;;10302478;28;20603;-68
2024/01/12 01:18:48;;;;;;;26.08;8.95;;;;;;;;;;10321110;28;20185;-68
2024/01/12 01:23:49;;;;;;;29.83;8.48;;;;;;;;;;10309378;28;20216;-68
2024/01/12 01:28:50;;;;;;;30.17;8.25;;;;;;;;;;10305536;28;20247;-68
2024/01/12 01:33:51;;;;;;;25.73;7.15;;;;;;;;;;10321345;28;20248;-68
2024/01/12 01:38:52;;;;;;;33.35;9.75;;;;;;;;;;10311089;28;20200;-70
2024/01/12 01:43:53;;;;;;;41.90;8.98;;;;;;;;;;10300946;28;20217;-69
2024/01/12 01:48:54;;;;;;;45.47;9.52;;;;;;;;;;10322956;28;20550;-68
2024/01/12 01:53:55;;;;;;;32.72;9.57;;;;;;;;;;10300441;28;20240;-68
2024/01/12 01:58:56;;;;;;;25.75;8.23;;;;;;;;;;10312920;28;20208;-70
2024/01/12 02:03:58;;;;;;;41.90;8.98;;;;;;;;;;10290684;28;20235;-68
2024/01/12 02:09:00;;;;;;;23.70;7.15;;;;;;;;;;10304628;28;20223;-69
2024/01/12 02:14:06;;;;;;;25.45;7.13;;;;;;;;;;10316345;28;20244;-70
2024/01/12 02:19:07;;;;;;;24.17;6.63;;;;;;;;;;10309558;28;20214;-67
2024/01/12 02:24:08;;;;;;;23.45;7.15;;;;;;;;;;10300517;28;20221;-68
2024/01/12 02:29:09;;;;;;;19.08;6.32;;;;;;;;;;10303575;28;20267;-68
2024/01/12 02:34:11;;;;;;;21.23;6.57;;;;;;;;;;10277969;28;20225;-68
2024/01/12 02:39:12;;;;;;;22.08;6.72;;;;;;;;;;10273342;28;20177;-69
2024/01/12 02:44:13;;;;;;;23.40;6.85;;;;;;;;;;10263706;28;20217;-69
2024/01/12 02:49:14;;;;;;;21.65;6.85;;;;;;;;;;10265395;28;20199;-70
2024/01/12 02:54:15;;;;;;;21.95;6.40;;;;;;;;;;10254598;28;20209;-70
2024/01/12 02:59:15;;;;;;;17.48;5.43;;;;;;;;;;10265875;28;20198;-70
2024/01/12 03:04:16;;;;;;;26.27;7.10;;;;;;;;;;10259191;28;20218;-70
2024/01/12 03:09:17;;;;;;;15.55;5.40;;;;;;;;;;10269100;28;20194;-68
2024/01/12 03:14:18;;;;;;;19.30;5.10;;;;;;;;;;10261432;28;20213;-70
2024/01/12 03:19:19;;;;;;;18.17;4.82;;;;;;;;;;10252629;28;20191;-70
2024/01/12 03:24:20;;;;;;;16.15;5.30;;;;;;;;;;10250462;28;20296;-68
2024/01/12 03:29:21;;;;;;;16.30;4.65;;;;;;;;;;10266377;28;20671;-70
2024/01/12 03:34:22;;;;;;;16.98;5.57;;;;;;;;;;10282076;28;20571;-70
2024/01/12 03:39:24;;;;;;;12.18;4.38;;;;;;;;;;10304390;28;20243;-69
2024/01/12 03:44:25;;;;;;;14.77;5.50;;;;;;;;;;10312006;28;20227;-69
2024/01/12 03:49:26;;;;;;;16.25;5.63;;;;;;;;;;10286425;28;20200;-68
2024/01/12 03:54:27;;;;;;;15.32;5.15;;;;;;;;;;10312623;28;20619;-68
2024/01/12 03:59:28;;;;;;;17.27;5.45;;;;;;;;;;10300232;28;20189;-68
2024/01/12 04:04:29;;;;;;;18.52;6.05;;;;;;;;;;10306303;28;20231;-68
2024/01/12 04:09:30;;;;;;;24.58;6.07;;;;;;;;;;10316925;28;20196;-68
2024/01/12 04:14:31;;;;;;;14.60;5.25;;;;;;;;;;10294499;28;20699;-68
2024/01/12 04:19:32;;;;;;;16.58;5.50;;;;;;;;;;10311350;28;20193;-68
2024/01/12 04:24:33;;;;;;;15.32;4.72;;;;;;;;;;10301231;28;20694;-68
2024/01/12 04:29:34;;;;;;;12.85;6.15;;;;;;;;;;10304739;28;20204;-69
2024/01/12 04:34:36;;;;;;;25.63;6.18;;;;;;;;;;10306394;28;20232;-69
2024/01/12 04:39:37;;;;;;;20.27;4.93;;;;;;;;;;10291650;28;20200;-70
2024/01/12 04:44:38;;;;;;;23.33;5.65;;;;;;;;;;10309313;28;20220;-70
2024/01/12 04:49:39;;;;;;;20.02;5.72;;;;;;;;;;10307551;28;20192;-70
2024/01/12 04:54:40;;;;;;;22.05;5.05;;;;;;;;;;10308738;28;20219;-70
2024/01/12 04:59:42;;;;;;;11.95;4.03;;;;;;;;;;10304632;28;20197;-70
2024/01/12 05:04:42;;;;;;;16.23;4.63;;;;;;;;;;10292772;28;20480;-70
2024/01/12 05:09:43;;;;;;;11.10;4.75;;;;;;;;;;10299696;28;20367;-70
2024/01/12 05:14:44;;;;;;;13.77;4.90;;;;;;;;;;10306656;28;20412;-70
2024/01/12 05:19:45;;;;;;;10.55;4.45;;;;;;;;;;10269251;28;20231;-70
2024/01/12 05:24:46;;;;;;;14.88;4.50;;;;;;;;;;10309297;28;20304;-70
2024/01/12 05:29:47;;;;;;;11.80;3.63;;;;;;;;;;10295443;28;20181;-67
2024/01/12 05:34:48;;;;;;;9.95;3.75;;;;;;;;;;10319047;28;20231;-68
2024/01/12 05:39:49;;;;;;;6.07;2.72;;;;;;;;;;10309873;28;20647;-69
2024/01/12 05:44:50;;;;;;;9.23;3.00;;;;;;;;;;10325589;28;20227;-70
2024/01/12 05:49:51;;;;;;;5.47;2.53;;;;;;;;;;10289489;28;20216;-70
2024/01/12 05:54:55;;;;;;;8.77;3.00;;;;;;;;;;10308510;28;20216;-69
2024/01/12 05:59:56;;;;;;;9.32;3.92;;;;;;;;;;10308542;28;20205;-71
2024/01/12 06:04:57;;;;;;;6.30;3.45;;;;;;;;;;10306542;28;20307;-70
2024/01/12 06:09:58;;;;;;;12.45;4.15;;;;;;;;;;10311773;28;20185;-70
2024/01/12 06:14:59;;;;;;;10.27;5.07;;;;;;;;;;10301394;28;20271;-70
2024/01/12 06:20:00;;;;;;;7.88;4.35;;;;;;;;;;10286090;28;20252;-70
2024/01/12 06:25:01;;;;;;;14.10;4.25;;;;;;;;;;10287768;28;20282;-68
2024/01/12 06:30:03;;;;;;;10.00;4.60;;;;;;;;;;10315267;28;20189;-70
2024/01/12 06:35:04;;;;;;;9.88;3.95;;;;;;;;;;10265650;28;20222;-70
2024/01/12 06:40:05;;;;;;;11.52;4.53;;;;;;;;;;10263127;28;21779;-68
2024/01/12 06:45:07;;;;;;;15.85;5.78;;;;;;;;;;10283194;28;20224;-71
2024/01/12 06:50:08;;;;;;;17.20;5.03;;;;;;;;;;10262848;28;20194;-70
2024/01/12 06:55:09;;;;;;;20.52;5.38;;;;;;;;;;10261099;28;20292;-70
2024/01/12 07:00:10;;;;;;;17.42;4.90;;;;;;;;;;10256160;28;20193;-70
2024/01/12 07:05:11;;;;;;;14.82;4.65;;;;;;;;;;10272029;28;20217;-70
2024/01/12 07:10:12;;;;;;;12.77;5.05;;;;;;;;;;10258317;28;20181;-70
2024/01/12 07:15:13;;;;;;;17.33;4.85;;;;;;;;;;10249181;28;20296;-70
2024/01/12 07:20:14;;;;;;;20.40;5.35;;;;;;;;;;10253416;28;20208;-70
2024/01/12 07:25:15;;;;;;;12.75;5.00;;;;;;;;;;10267300;28;20224;-70
2024/01/12 07:30:16;;;;;;;13.27;5.18;;;;;;;;;;10270387;28;20818;-70
2024/01/12 07:35:17;;;;;;;18.25;4.68;;;;;;;;;;10298277;28;20311;-70
2024/01/12 07:40:18;;;;;;;17.75;5.43;;;;;;;;;;10305584;28;20192;-70
2024/01/12 07:45:19;;;;;;;20.00;5.93;;;;;;;;;;10315844;28;20224;-70
2024/01/12 07:50:20;;;;;;;16.85;6.47;;;;;;;;;;10307013;28;20263;-70
2024/01/12 07:55:21;;;;;;;12.95;4.55;;;;;;;;;;10300089;28;20227;-70
2024/01/12 08:00:22;;;;;;;10.90;4.80;;;;;;;;;;10314618;28;20200;-70
2024/01/12 08:05:23;;;;;;;8.38;4.40;;;;;;;;;;10311852;28;20224;-70
2024/01/12 08:10:24;;;;;;;19.10;5.97;;;;;;;;;;10287747;28;20275;-70
2024/01/12 08:15:25;;;;;;;16.33;5.30;;;;;;;;;;10309050;28;20217;-70
2024/01/12 08:20:26;;;;;;;14.57;6.40;;;;;;;;;;10313251;28;20190;-70
2024/01/12 08:25:27;;;;;;;20.65;6.55;;;;;;;;;;10299858;28;20212;-70
2024/01/12 08:30:28;;;;;;;20.95;7.13;;;;;;;;;;10300774;28;20580;-70
2024/01/12 08:35:29;;;;;;;25.27;7.75;;;;;;;;;;10293469;28;20757;-70
2024/01/12 08:40:30;;;;;;;22.15;7.78;;;;;;;;;;10303324;28;20193;-70
2024/01/12 08:45:31;;;;;;;14.63;4.90;;;;;;;;;;10275208;28;20192;-70
2024/01/12 08:50:34;;;;;;;27.08;7.30;;;;;;;;;;10314023;28;20201;-70
2024/01/12 08:55:35;;;;;;;18.10;7.55;;;;;;;;;;10305374;28;20266;-70
2024/01/12 09:00:36;;;;;;;21.75;6.75;;;;;;;;;;10313491;28;20240;-70
2024/01/12 09:05:37;;;;;;;22.05;7.65;;;;;;;;;;10318455;28;20193;-70
2024/01/12 09:10:38;;;;;;;26.02;8.70;;;;;;;;;;10314811;28;20197;-70
2024/01/12 09:15:39;;;;;;;20.75;8.18;;;;;;;;;;10305377;28;20197;-71
2024/01/12 09:20:40;;;;;;;16.13;7.15;;;;;;;;;;10306726;28;20216;-71
2024/01/12 09:25:41;;;;;;;25.25;7.70;;;;;;;;;;10306386;28;20208;-70
2024/01/12 09:30:42;;;;;;;23.52;8.55;;;;;;;;;;10284305;28;20309;-70
2024/01/12 09:35:43;;;;;;;22.23;7.70;;;;;;;;;;10312014;28;20330;-70
2024/01/12 09:40:45;;;;;;;24.83;9.48;;;;;;;;;;10311149;28;20243;-70
2024/01/12 09:45:46;;;;;;;28.10;9.68;;;;;;;;;;10302040;28;20276;-70
2024/01/12 09:50:51;;;;;;;27.00;9.63;;;;;;;;;;10299192;28;20190;-70
2024/01/12 09:55:52;;;;;;;31.02;10.23;;;;;;;;;;10314320;28;20671;-70
2024/01/12 10:00:54;;;;;;;23.00;8.68;;;;;;;;;;10303208;28;20228;-70
2024/01/12 10:05:55;;;;;;;24.65;10.00;;;;;;;;;;10313177;28;20337;-70
2024/01/12 10:10:56;;;;;;;21.88;10.30;;;;;;;;;;10292633;28;20208;-70
2024/01/12 10:15:57;;;;;;;24.30;10.07;;;;;;;;;;10308183;28;20192;-70
2024/01/12 10:20:58;;;;;;;23.60;8.63;;;;;;;;;;10313855;28;20212;-70
2024/01/12 10:25:59;;;;;;;19.38;8.18;;;;;;;;;;10295725;28;20184;-69
2024/01/12 10:31:07;;;;;;;25.85;8.77;;;;;;;;;;10320833;28;20232;-70
2024/01/12 10:36:13;;;;;;;21.60;8.75;;;;;;;;;;10333103;28;20200;-70
2024/01/12 10:41:16;;;;;;;16.55;8.05;;;;;;;;;;10312342;28;20745;-70
2024/01/12 10:46:25;;;;;;;22.05;9.00;;;;;;;;;;10328329;28;20184;-69
2024/01/12 10:51:26;;;;;;;17.80;8.82;;;;;;;;;;10306550;28;20209;-69
2024/01/12 10:56:28;;;;;;;25.63;9.05;;;;;;;;;;10334321;28;20188;-70
2024/01/12 11:01:29;;;;;;;17.17;8.50;;;;;;;;;;10326078;28;20224;-69
2024/01/12 11:06:31;;;;;;;26.13;9.73;;;;;;;;;;10306907;28;20196;-70
2024/01/12 11:11:36;;;;;;;19.80;9.48;;;;;;;;;;10302796;28;20239;-75
2024/01/12 11:16:37;;;;;;;19.80;9.23;;;;;;;;;;10297587;28;20224;-70
2024/01/12 11:21:40;;;;;;;17.90;7.63;;;;;;;;;;10311425;28;20227;-70
2024/01/12 11:26:41;;;;;;;16.58;8.65;;;;;;;;;;10309060;28;20275;-70
2024/01/12 11:31:49;;;;;;;18.40;9.13;;;;;;;;;;10283257;28;20598;-70
2024/01/12 11:36:59;;;;;;;22.67;9.40;;;;;;;;;;10297055;28;20198;-70
2024/01/12 11:42:02;;;;;;;17.55;9.15;;;;;;;;;;10306548;28;20208;-71
2024/01/12 11:47:07;;;;;;;21.77;9.93;;;;;;;;;;10286439;28;20199;-70
2024/01/12 11:52:08;;;;;;;19.33;8.60;;;;;;;;;;10305812;28;20303;-71
2024/01/12 11:57:09;;;;;;;18.88;9.20;;;;;;;;;;10310384;28;20732;-71
2024/01/12 12:02:10;;;;;;;16.52;8.07;;;;;;;;;;10296587;28;20247;-71
2024/01/12 12:07:12;;;;;;;25.48;9.75;;;;;;;;;;10318701;28;20201;-71
2024/01/12 12:12:12;;;;;;;19.73;8.40;;;;;;;;;;10295823;28;20300;-71
2024/01/12 12:17:14;;;;;;;22.02;8.60;;;;;;;;;;10302415;28;20871;-71
2024/01/12 12:22:15;;;;;;;17.55;8.70;;;;;;;;;;10320829;28;20217;-71
2024/01/12 12:27:16;;;;;;;21.70;8.65;;;;;;;;;;10294933;28;20864;-71
2024/01/12 12:32:17;;;;;;;27.38;9.50;;;;;;;;;;10281294;28;20220;-71
2024/01/12 12:37:21;;;;;;;24.00;7.95;;;;;;;;;;10305656;28;20248;-71
2024/01/12 12:42:23;;;;;;;17.20;7.97;;;;;;;;;;10290867;28;20233;-72
2024/01/12 12:47:24;;;;;;;14.57;8.43;;;;;;;;;;10298619;28;20256;-71
2024/01/12 12:52:25;;;;;;;20.10;9.40;;;;;;;;;;10323901;28;20220;-71
2024/01/12 12:57:26;;;;;;;19.58;8.50;;;;;;;;;;10276305;28;20229;-71
2024/01/12 13:02:27;;;;;;;19.30;9.65;;;;;;;;;;10278445;28;20224;-71
2024/01/12 13:07:28;;;;;;;20.73;7.88;;;;;;;;;;10305444;28;20192;-71
2024/01/12 13:12:29;;;;;;;19.35;9.27;;;;;;;;;;10313825;28;20237;-71
2024/01/12 13:17:30;;;;;;;22.50;8.63;;;;;;;;;;10307185;28;20196;-72
2024/01/12 13:22:31;;;;;;;20.90;8.75;;;;;;;;;;10299159;28;20228;-71
2024/01/12 13:27:32;;;;;;;24.15;10.32;;;;;;;;;;10315590;28;20663;-71
2024/01/12 13:32:33;;;;;;;20.65;9.35;;;;;;;;;;10310903;28;20294;-71
2024/01/12 13:37:34;;;;;;;19.55;9.60;;;;;;;;;;10320956;28;20693;-71
2024/01/12 13:42:35;;;;;;;19.30;9.35;;;;;;;;;;10285609;28;20216;-72
2024/01/12 13:47:36;;;;;;;19.38;9.45;;;;;;;;;;10316104;28;20192;-71
2024/01/12 13:52:37;;;;;;;21.20;9.15;;;;;;;;;;10304489;28;20220;-71
2024/01/12 13:57:38;;;;;;;18.90;9.60;;;;;;;;;;10317110;28;20197;-71
2024/01/12 14:02:39;;;;;;;19.42;8.88;;;;;;;;;;10286850;28;20266;-71
2024/01/12 14:07:41;;;;;;;20.08;9.35;;;;;;;;;;10310762;28;20539;-71
2024/01/12 14:12:42;;;;;;;21.35;8.90;;;;;;;;;;10324198;28;20212;-71
2024/01/12 14:17:43;;;;;;;16.27;8.40;;;;;;;;;;10319254;28;20616;-71
2024/01/12 14:22:44;;;;;;;18.25;9.02;;;;;;;;;;10268898;28;20628;-71
2024/01/12 14:27:46;;;;;;;16.25;7.38;;;;;;;;;;10305249;28;20181;-71
2024/01/12 14:32:47;;;;;;;19.55;7.57;;;;;;;;;;10291816;28;20221;-71
2024/01/12 14:37:48;;;;;;;19.25;8.23;;;;;;;;;;10310674;28;20189;-72
2024/01/12 14:42:49;;;;;;;14.60;6.78;;;;;;;;;;10284889;28;20216;-71
2024/01/12 14:47:50;;;;;;;16.10;8.10;;;;;;;;;;10299214;28;20200;-71
2024/01/12 14:52:51;;;;;;;16.65;7.72;;;;;;;;;;10308992;28;20565;-71
2024/01/12 14:57:53;;;;;;;17.85;7.82;;;;;;;;;;10298715;28;20196;-71
2024/01/12 15:02:53;;;;;;;13.35;6.88;;;;;;;;;;10291937;28;22035;-71
2024/01/12 15:07:55;;;;;;;11.02;5.93;;;;;;;;;;10310637;28;20337;-71
2024/01/12 15:12:55;;;;;;;12.55;7.25;;;;;;;;;;10322155;28;20405;-71
2024/01/12 15:17:58;;;;;;;10.57;5.97;;;;;;;;;;10299821;28;20709;-71
2024/01/12 15:22:59;;;;;;;14.20;6.32;;;;;;;;;;10315673;28;20592;-71
2024/01/12 15:28:01;;;;;;;13.15;6.03;;;;;;;;;;10298545;28;20235;-71
2024/01/12 15:33:02;;;;;;;14.82;6.20;;;;;;;;;;10314841;28;20232;-71
2024/01/12 15:38:03;;;;;;;9.30;5.25;;;;;;;;;;10314278;28;20283;-71
2024/01/12 15:43:04;;;;;;;12.63;5.65;;;;;;;;;;10300046;28;20591;-71
2024/01/12 15:48:05;;;;;;;12.85;5.72;;;;;;;;;;10315420;28;20206;-71
2024/01/12 15:53:06;;;;;;;10.02;4.85;;;;;;;;;;10320117;28;20271;-71
2024/01/12 15:58:07;;;;;;;12.27;6.78;;;;;;;;;;10295972;28;20185;-71
2024/01/12 16:03:08;;;;;;;12.35;6.50;;;;;;;;;;10306001;28;20235;-71
2024/01/12 16:08:09;;;;;;;10.30;5.88;;;;;;;;;;10315844;28;20681;-71
2024/01/12 16:13:10;;;;;;;13.93;7.05;;;;;;;;;;10309893;28;20213;-71
2024/01/12 16:18:11;;;;;;;12.25;5.85;;;;;;;;;;10306290;28;20583;-71
2024/01/12 16:23:12;;;;;;;13.52;6.90;;;;;;;;;;10289126;28;20306;-71
2024/01/12 16:28:13;;;;;;;16.15;8.00;;;;;;;;;;10303507;28;20185;-71
2024/01/12 16:33:14;;;;;;;17.45;7.50;;;;;;;;;;10303033;28;20689;-71
2024/01/12 16:38:15;;;;;;;19.60;7.97;;;;;;;;;;10299412;28;20196;-71
2024/01/12 16:43:16;;;;;;;19.25;8.50;;;;;;;;;;10299665;28;20236;-72
2024/01/12 16:48:17;;;;;;;15.05;7.43;;;;;;;;;;10314533;28;20197;-71
2024/01/12 16:53:20;;;;;;;13.98;6.43;;;;;;;;;;10316898;28;20208;-71
2024/01/12 16:58:21;;;;;;;17.48;6.65;;;;;;;;;;10311292;28;20671;-72
2024/01/12 17:03:22;;;;;;;16.90;7.25;;;;;;;;;;10324087;28;20228;-71
2024/01/12 17:08:23;;;;;;;8.43;6.20;;;;;;;;;;10304519;28;20195;-72
2024/01/12 17:13:24;;;;;;;12.90;6.93;;;;;;;;;;10292390;28;20236;-71
2024/01/12 17:18:25;;;;;;;14.57;7.45;;;;;;;;;;10303046;28;20219;-71
2024/01/12 17:23:27;;;;;;;14.95;7.55;;;;;;;;;;10304482;28;20232;-71
2024/01/12 17:28:28;;;;;;;15.68;8.38;;;;;;;;;;10316177;28;20300;-71
2024/01/12 17:33:31;;;;;;;17.48;8.25;;;;;;;;;;10288380;28;20827;-71
2024/01/12 17:38:33;;;;;;;17.35;7.78;;;;;;;;;;10312884;28;20184;-71
2024/01/12 17:43:34;;;;;;;13.65;7.63;;;;;;;;;;10300192;28;20227;-71
2024/01/12 17:48:35;;;;;;;16.15;8.88;;;;;;;;;;10317866;28;20284;-71
2024/01/12 17:53:36;;;;;;;15.63;8.23;;;;;;;;;;10295365;28;20223;-71
2024/01/12 17:58:37;;;;;;;18.85;8.80;;;;;;;;;;10305926;28;20275;-71
2024/01/12 18:03:38;;;;;;;14.60;9.05;;;;;;;;;;10279767;28;20208;-71
2024/01/12 18:08:39;;;;;;;15.50;7.30;;;;;;;;;;10300090;28;20777;-71
2024/01/12 18:13:40;;;;;;;15.15;7.28;;;;;;;;;;10289418;28;20238;-71
2024/01/12 18:18:41;;;;;;;15.00;8.18;;;;;;;;;;10300793;28;20658;-72
2024/01/12 18:23:42;;;;;;;14.27;7.35;;;;;;;;;;10293067;28;20348;-72
2024/01/12 18:28:43;;;;;;;15.25;8.02;;;;;;;;;;10300954;28;20188;-72
2024/01/12 18:33:45;;;;;;;13.63;7.35;;;;;;;;;;10305013;28;20263;-71
2024/01/12 18:38:46;;;;;;;18.83;9.00;;;;;;;;;;10306894;28;20272;-71
2024/01/12 18:43:47;;;;;;;15.93;8.38;;;;;;;;;;10315902;28;20216;-72
2024/01/12 18:48:49;;;;;;;17.42;8.60;;;;;;;;;;10287385;28;20624;-72
2024/01/12 18:53:50;;;;;;;15.00;7.50;;;;;;;;;;10291348;28;20468;-71
2024/01/12 18:58:51;;;;;;;15.13;7.72;;;;;;;;;;10309247;28;21366;-71
2024/01/12 19:03:52;;;;;;;11.93;6.95;;;;;;;;;;10294074;28;20972;-72
2024/01/12 19:08:53;;;;;;;18.42;7.65;;;;;;;;;;10305823;28;20192;-72
2024/01/12 19:13:56;;;;;;;17.00;8.23;;;;;;;;;;10296562;28;20559;-72
2024/01/12 19:18:57;;;;;;;22.02;8.70;;;;;;;;;;10314634;28;20201;-72
2024/01/12 19:23:58;;;;;;;16.55;8.15;;;;;;;;;;10304326;28;20345;-72
2024/01/12 19:28:59;;;;;;;15.57;8.38;;;;;;;;;;10315123;28;20188;-72
2024/01/12 19:34:00;;;;;;;14.40;7.90;;;;;;;;;;10318885;28;20235;-71
2024/01/12 19:39:02;;;;;;;14.23;7.88;;;;;;;;;;10303660;28;20251;-72
2024/01/12 19:44:03;;;;;;;13.43;7.95;;;;;;;;;;10301751;28;20623;-72
2024/01/12 19:49:04;;;;;;;13.70;7.15;;;;;;;;;;10293997;28;20191;-72
2024/01/12 19:54:05;;;;;;;15.48;7.22;;;;;;;;;;10320533;28;20240;-72
2024/01/12 19:59:09;;;;;;;17.95;7.90;;;;;;;;;;10294289;28;20186;-72
2024/01/12 20:04:10;;;;;;;12.73;7.05;;;;;;;;;;10290372;28;20259;-72
2024/01/12 20:09:11;;;;;;;12.55;8.02;;;;;;;;;;10296077;28;20181;-72
2024/01/12 20:14:12;;;;;;;17.52;8.63;;;;;;;;;;10299332;28;20750;-72
2024/01/12 20:19:13;;;;;;;15.80;7.80;;;;;;;;;;10268231;28;20192;-72
2024/01/12 20:24:14;;;;;;;18.83;8.52;;;;;;;;;;10316364;28;20217;-71
2024/01/12 20:29:15;;;;;;;19.38;8.70;;;;;;;;;;10303329;28;20211;-72
2024/01/12 20:34:16;;;;;;;14.80;8.40;;;;;;;;;;10299536;28;20670;-72
2024/01/12 20:39:17;;;;;;;14.98;7.65;;;;;;;;;;10295847;28;20182;-72
2024/01/12 20:44:18;;;;;;;22.23;9.80;;;;;;;;;;10301776;28;20221;-72
2024/01/12 20:49:19;;;;;;;16.23;8.25;;;;;;;;;;10297266;28;20241;-72
2024/01/12 20:54:20;;;;;;;17.35;8.52;;;;;;;;;;10293848;28;20291;-72
2024/01/12 20:59:21;;;;;;;18.42;8.90;;;;;;;;;;10289218;28;20397;-72
2024/01/12 21:04:22;;;;;;;14.52;9.25;;;;;;;;;;10284620;28;20225;-72
2024/01/12 21:09:23;;;;;;;16.45;8.40;;;;;;;;;;10301671;28;20211;-72
2024/01/12 21:14:27;;;;;;;19.15;9.23;;;;;;;;;;10269538;28;20292;-72
2024/01/12 21:19:29;;;;;;;23.65;9.75;;;;;;;;;;10303669;28;20602;-72
2024/01/12 21:24:29;;;;;;;19.55;9.73;;;;;;;;;;10300386;28;20636;-72
2024/01/12 21:29:31;;;;;;;16.30;8.65;;;;;;;;;;10304657;28;20628;-72
2024/01/12 21:34:32;;;;;;;14.45;8.65;;;;;;;;;;10296742;28;20431;-73
2024/01/12 21:39:32;;;;;;;16.15;8.77;;;;;;;;;;10296648;28;20188;-73
2024/01/12 21:44:33;;;;;;;22.40;9.05;;;;;;;;;;10295071;28;20466;-72
2024/01/12 21:49:34;;;;;;;16.65;8.05;;;;;;;;;;10277793;28;20193;-72
2024/01/12 21:54:35;;;;;;;16.48;8.80;;;;;;;;;;10303725;28;20235;-73
2024/01/12 21:59:36;;;;;;;15.45;9.00;;;;;;;;;;10318180;28;20192;-73
2024/01/12 22:04:37;;;;;;;18.05;8.73;;;;;;;;;;10304315;28;20319;-72
2024/01/12 22:09:39;;;;;;;16.40;8.68;;;;;;;;;;10306248;28;20182;-72
2024/01/12 22:14:40;;;;;;;17.02;8.13;;;;;;;;;;10302026;28;20244;-72
2024/01/12 22:19:41;;;;;;;14.30;8.32;;;;;;;;;;10306146;28;20193;-72
2024/01/12 22:24:42;;;;;;;14.65;7.88;;;;;;;;;;10308564;28;20217;-73
2024/01/12 22:29:43;;;;;;;13.77;7.43;;;;;;;;;;10306748;28;20221;-73
2024/01/12 22:34:44;;;;;;;11.07;6.20;;;;;;;;;;10307104;28;20276;-73
2024/01/12 22:39:45;;;;;;;12.88;6.88;;;;;;;;;;10302150;28;20224;-73
2024/01/12 22:44:46;;;;;;;15.95;7.47;;;;;;;;;;10314443;28;20220;-73
2024/01/12 22:49:47;;;;;;;15.25;7.15;;;;;;;;;;10297741;28;20200;-73
2024/01/12 22:54:49;;;;;;;14.98;7.45;;;;;;;;;;10287101;28;20213;-73
2024/01/12 22:59:49;;;;;;;10.20;6.80;;;;;;;;;;10322036;28;20193;-73
2024/01/12 23:04:50;;;;;;;12.10;6.15;;;;;;;;;;10313951;28;20224;-74
2024/01/12 23:09:55;;;;;;;9.98;5.18;;;;;;;;;;10315249;28;20190;-74
2024/01/12 23:14:56;;;;;;;13.80;6.07;;;;;;;;;;10337243;28;20695;-74
2024/01/12 23:19:57;;;;;;;9.02;5.63;;;;;;;;;;10316525;28;20196;-73
2024/01/12 23:24:58;;;;;;;9.77;5.93;;;;;;;;;;10302627;28;20227;-73
2024/01/12 23:29:59;;;;;;;10.70;5.65;;;;;;;;;;10305541;28;20915;-74
2024/01/12 23:35:00;;;;;;;11.68;5.97;;;;;;;;;;10322233;28;20296;-74
2024/01/12 23:40:02;;;;;;;9.88;5.10;;;;;;;;;;10326159;28;20232;-74
2024/01/12 23:45:04;;;;;;;9.15;5.47;;;;;;;;;;10315897;28;20560;-73
2024/01/12 23:50:05;;;;;;;11.30;5.97;;;;;;;;;;10316244;28;20601;-73
2024/01/12 23:55:09;;;;;;;13.57;6.10;;;;;;;;;;10304096;28;20493;-74
